sensor_id;sensor_type;location;lat;lon;timestamp;P1;durP1;ratioP1;P2;durP2;ratioP2
7845;SDS011;3968;51.424;6.788;2023-10-09T00:00:09;27.30;;;16.65;;
7845;SDS011;3968;51.424;6.788;2023-10-09T00:03:00;26.10;;;15.77;;
7845;SDS011;3968;51.424;6.788;2023-10-09T00:05:26;27.40;;;16.17;;
7845;SDS011;3968;51.424;6.788;2023-10-09T00:08:24;31.45;;;17.17;;
7845;SDS011;3968;51.424;6.788;2023-10-09T00:10:57;23.90;;;15.98;;
7845;SDS011;3968;51.424;6.788;2023-10-09T00:13:38;24.33;;;15.68;;
7845;SDS011;3968;51.424;6.788;2023-10-09T00:16:13;25.60;;;16.08;;
7845;SDS011;3968;51.424;6.788;2023-10-09T00:19:00;25.00;;;15.80;;
7845;SDS011;3968;51.424;6.788;2023-10-09T00:21:44;26.65;;;16.35;;
7845;SDS011;3968;51.424;6.788;2023-10-09T00:24:11;26.67;;;16.08;;
7845;SDS011;3968;51.424;6.788;2023-10-09T00:26:49;22.42;;;14.70;;
7845;SDS011;3968;51.424;6.788;2023-10-09T00:29:21;24.85;;;16.23;;
7845;SDS011;3968;51.424;6.788;2023-10-09T00:31:48;23.75;;;14.75;;
7845;SDS011;3968;51.424;6.788;2023-10-09T00:34:41;22.67;;;14.80;;
7845;SDS011;3968;51.424;6.788;2023-10-09T00:37:10;25.63;;;16.30;;
7845;SDS011;3968;51.424;6.788;2023-10-09T00:39:56;22.42;;;14.15;;
7845;SDS011;3968;51.424;6.788;2023-10-09T00:42:23;21.25;;;14.00;;
7845;SDS011;3968;51.424;6.788;2023-10-09T00:44:58;26.08;;;16.40;;
7845;SDS011;3968;51.424;6.788;2023-10-09T00:47:29;23.13;;;15.13;;
7845;SDS011;3968;51.424;6.788;2023-10-09T00:50:00;26.42;;;15.55;;
7845;SDS011;3968;51.424;6.788;2023-10-09T00:52:40;19.17;;;14.13;;
7845;SDS011;3968;51.424;6.788;2023-10-09T00:55:10;20.45;;;13.77;;
7845;SDS011;3968;51.424;6.788;2023-10-09T00:57:45;23.88;;;14.35;;
7845;SDS011;3968;51.424;6.788;2023-10-09T01:00:21;21.45;;;13.60;;
7845;SDS011;3968;51.424;6.788;2023-10-09T01:03:20;20.95;;;13.48;;
7845;SDS011;3968;51.424;6.788;2023-10-09T01:05:51;22.48;;;14.52;;
7845;SDS011;3968;51.424;6.788;2023-10-09T01:08:33;20.25;;;12.60;;
7845;SDS011;3968;51.424;6.788;2023-10-09T01:11:05;23.70;;;14.30;;
7845;SDS011;3968;51.424;6.788;2023-10-09T01:13:35;20.20;;;12.27;;
7845;SDS011;3968;51.424;6.788;2023-10-09T01:16:25;18.08;;;12.63;;
7845;SDS011;3968;51.424;6.788;2023-10-09T01:18:51;22.20;;;13.85;;
7845;SDS011;3968;51.424;6.788;2023-10-09T01:21:21;19.48;;;13.32;;
7845;SDS011;3968;51.424;6.788;2023-10-09T01:23:51;22.67;;;13.25;;
7845;SDS011;3968;51.424;6.788;2023-10-09T01:26:32;20.85;;;13.15;;
7845;SDS011;3968;51.424;6.788;2023-10-09T01:32:27;18.83;;;12.80;;
7845;SDS011;3968;51.424;6.788;2023-10-09T01:34:52;20.88;;;12.25;;
7845;SDS011;3968;51.424;6.788;2023-10-09T01:37:20;20.38;;;12.23;;
7845;SDS011;3968;51.424;6.788;2023-10-09T01:39:55;22.00;;;12.35;;
7845;SDS011;3968;51.424;6.788;2023-10-09T01:42:45;20.23;;;13.57;;
7845;SDS011;3968;51.424;6.788;2023-10-09T01:45:13;17.88;;;12.07;;
7845;SDS011;3968;51.424;6.788;2023-10-09T01:47:45;18.85;;;12.57;;
7845;SDS011;3968;51.424;6.788;2023-10-09T01:50:16;17.25;;;12.38;;
7845;SDS011;3968;51.424;6.788;2023-10-09T01:52:47;17.45;;;12.38;;
7845;SDS011;3968;51.424;6.788;2023-10-09T01:55:12;19.23;;;12.05;;
7845;SDS011;3968;51.424;6.788;2023-10-09T01:57:56;20.70;;;12.48;;
7845;SDS011;3968;51.424;6.788;2023-10-09T02:00:23;16.60;;;12.30;;
7845;SDS011;3968;51.424;6.788;2023-10-09T02:02:53;16.70;;;11.52;;
7845;SDS011;3968;51.424;6.788;2023-10-09T02:05:19;21.15;;;12.85;;
7845;SDS011;3968;51.424;6.788;2023-10-09T02:07:44;18.83;;;11.77;;
7845;SDS011;3968;51.424;6.788;2023-10-09T02:10:16;20.25;;;12.18;;
7845;SDS011;3968;51.424;6.788;2023-10-09T02:15:28;16.92;;;12.75;;
7845;SDS011;3968;51.424;6.788;2023-10-09T02:18:10;22.17;;;12.65;;
7845;SDS011;3968;51.424;6.788;2023-10-09T02:20:43;22.75;;;13.10;;
7845;SDS011;3968;51.424;6.788;2023-10-09T02:23:24;17.98;;;11.57;;
7845;SDS011;3968;51.424;6.788;2023-10-09T02:25:55;18.52;;;12.45;;
7845;SDS011;3968;51.424;6.788;2023-10-09T02:28:30;19.15;;;12.77;;
7845;SDS011;3968;51.424;6.788;2023-10-09T02:30:59;21.83;;;12.02;;
7845;SDS011;3968;51.424;6.788;2023-10-09T02:33:35;18.85;;;12.05;;
7845;SDS011;3968;51.424;6.788;2023-10-09T02:36:07;17.45;;;11.25;;
7845;SDS011;3968;51.424;6.788;2023-10-09T02:38:38;15.32;;;11.43;;
7845;SDS011;3968;51.424;6.788;2023-10-09T02:41:06;17.08;;;12.07;;
7845;SDS011;3968;51.424;6.788;2023-10-09T02:43:38;17.70;;;11.57;;
7845;SDS011;3968;51.424;6.788;2023-10-09T02:46:13;17.70;;;11.55;;
7845;SDS011;3968;51.424;6.788;2023-10-09T02:49:01;19.45;;;11.95;;
7845;SDS011;3968;51.424;6.788;2023-10-09T02:51:31;16.73;;;11.80;;
7845;SDS011;3968;51.424;6.788;2023-10-09T02:54:02;22.17;;;11.85;;
7845;SDS011;3968;51.424;6.788;2023-10-09T02:56:44;17.38;;;11.77;;
7845;SDS011;3968;51.424;6.788;2023-10-09T02:59:13;19.67;;;12.00;;
7845;SDS011;3968;51.424;6.788;2023-10-09T03:01:39;19.42;;;11.55;;
7845;SDS011;3968;51.424;6.788;2023-10-09T03:04:07;16.42;;;11.60;;
7845;SDS011;3968;51.424;6.788;2023-10-09T03:06:35;17.92;;;11.25;;
7845;SDS011;3968;51.424;6.788;2023-10-09T03:09:08;15.00;;;11.07;;
7845;SDS011;3968;51.424;6.788;2023-10-09T03:11:44;17.08;;;12.20;;
7845;SDS011;3968;51.424;6.788;2023-10-09T03:14:18;22.20;;;12.90;;
7845;SDS011;3968;51.424;6.788;2023-10-09T03:16:51;18.85;;;12.00;;
7845;SDS011;3968;51.424;6.788;2023-10-09T03:19:17;15.93;;;11.60;;
7845;SDS011;3968;51.424;6.788;2023-10-09T03:21:43;15.05;;;11.07;;
7845;SDS011;3968;51.424;6.788;2023-10-09T03:24:09;16.65;;;11.10;;
7845;SDS011;3968;51.424;6.788;2023-10-09T03:26:36;17.17;;;12.20;;
7845;SDS011;3968;51.424;6.788;2023-10-09T03:29:02;18.05;;;11.13;;
7845;SDS011;3968;51.424;6.788;2023-10-09T03:31:34;18.23;;;11.15;;
7845;SDS011;3968;51.424;6.788;2023-10-09T03:34:01;16.55;;;11.88;;
7845;SDS011;3968;51.424;6.788;2023-10-09T03:36:28;17.13;;;10.95;;
7845;SDS011;3968;51.424;6.788;2023-10-09T03:38:55;20.67;;;11.70;;
7845;SDS011;3968;51.424;6.788;2023-10-09T03:41:25;15.98;;;11.30;;
7845;SDS011;3968;51.424;6.788;2023-10-09T03:43:52;14.82;;;10.65;;
7845;SDS011;3968;51.424;6.788;2023-10-09T03:46:19;19.85;;;11.65;;
7845;SDS011;3968;51.424;6.788;2023-10-09T03:48:58;18.75;;;11.43;;
7845;SDS011;3968;51.424;6.788;2023-10-09T03:51:27;14.13;;;10.75;;
7845;SDS011;3968;51.424;6.788;2023-10-09T03:53:54;16.83;;;10.75;;
7845;SDS011;3968;51.424;6.788;2023-10-09T03:56:20;16.38;;;10.82;;
7845;SDS011;3968;51.424;6.788;2023-10-09T03:58:50;13.07;;;9.55;;
7845;SDS011;3968;51.424;6.788;2023-10-09T04:01:18;14.43;;;10.10;;
7845;SDS011;3968;51.424;6.788;2023-10-09T04:03:54;16.55;;;10.93;;
7845;SDS011;3968;51.424;6.788;2023-10-09T04:06:27;15.82;;;10.23;;
7845;SDS011;3968;51.424;6.788;2023-10-09T04:11:44;19.08;;;11.40;;
7845;SDS011;3968;51.424;6.788;2023-10-09T04:14:22;13.43;;;9.60;;
7845;SDS011;3968;51.424;6.788;2023-10-09T04:16:58;15.90;;;10.13;;
7845;SDS011;3968;51.424;6.788;2023-10-09T04:19:34;14.50;;;9.32;;
7845;SDS011;3968;51.424;6.788;2023-10-09T04:22:13;14.50;;;10.80;;
7845;SDS011;3968;51.424;6.788;2023-10-09T04:24:51;13.73;;;9.73;;
7845;SDS011;3968;51.424;6.788;2023-10-09T04:27:17;15.38;;;10.40;;
7845;SDS011;3968;51.424;6.788;2023-10-09T04:29:42;13.30;;;9.80;;
7845;SDS011;3968;51.424;6.788;2023-10-09T04:32:14;14.77;;;9.95;;
7845;SDS011;3968;51.424;6.788;2023-10-09T04:34:43;14.63;;;10.60;;
7845;SDS011;3968;51.424;6.788;2023-10-09T04:37:19;16.08;;;10.70;;
7845;SDS011;3968;51.424;6.788;2023-10-09T04:40:01;17.80;;;10.90;;
7845;SDS011;3968;51.424;6.788;2023-10-09T04:42:38;16.02;;;10.45;;
7845;SDS011;3968;51.424;6.788;2023-10-09T04:45:11;16.67;;;10.25;;
7845;SDS011;3968;51.424;6.788;2023-10-09T04:47:39;17.38;;;10.35;;
7845;SDS011;3968;51.424;6.788;2023-10-09T04:50:14;13.40;;;9.90;;
7845;SDS011;3968;51.424;6.788;2023-10-09T04:52:43;15.80;;;11.00;;
7845;SDS011;3968;51.424;6.788;2023-10-09T04:55:09;14.52;;;10.40;;
7845;SDS011;3968;51.424;6.788;2023-10-09T04:57:35;15.23;;;10.23;;
7845;SDS011;3968;51.424;6.788;2023-10-09T05:00:13;14.10;;;10.45;;
7845;SDS011;3968;51.424;6.788;2023-10-09T05:03:10;13.60;;;9.73;;
7845;SDS011;3968;51.424;6.788;2023-10-09T05:05:37;14.80;;;10.70;;
7845;SDS011;3968;51.424;6.788;2023-10-09T05:08:09;15.13;;;9.98;;
7845;SDS011;3968;51.424;6.788;2023-10-09T05:10:59;15.52;;;10.07;;
7845;SDS011;3968;51.424;6.788;2023-10-09T05:13:26;13.52;;;9.38;;
7845;SDS011;3968;51.424;6.788;2023-10-09T05:18:48;13.57;;;9.93;;
7845;SDS011;3968;51.424;6.788;2023-10-09T05:21:52;12.80;;;9.98;;
7845;SDS011;3968;51.424;6.788;2023-10-09T05:24:23;14.70;;;10.30;;
7845;SDS011;3968;51.424;6.788;2023-10-09T05:26:49;11.90;;;9.90;;
7845;SDS011;3968;51.424;6.788;2023-10-09T05:29:21;13.45;;;9.95;;
7845;SDS011;3968;51.424;6.788;2023-10-09T05:31:57;14.93;;;9.48;;
7845;SDS011;3968;51.424;6.788;2023-10-09T05:34:39;11.98;;;9.18;;
7845;SDS011;3968;51.424;6.788;2023-10-09T05:37:25;16.63;;;9.85;;
7845;SDS011;3968;51.424;6.788;2023-10-09T05:40:01;14.70;;;10.40;;
7845;SDS011;3968;51.424;6.788;2023-10-09T05:42:33;14.55;;;10.82;;
7845;SDS011;3968;51.424;6.788;2023-10-09T05:45:06;12.88;;;9.77;;
7845;SDS011;3968;51.424;6.788;2023-10-09T05:47:51;19.05;;;11.55;;
7845;SDS011;3968;51.424;6.788;2023-10-09T05:50:18;13.70;;;10.45;;
7845;SDS011;3968;51.424;6.788;2023-10-09T05:52:48;14.43;;;10.35;;
7845;SDS011;3968;51.424;6.788;2023-10-09T05:55:17;17.20;;;9.98;;
7845;SDS011;3968;51.424;6.788;2023-10-09T05:57:46;17.63;;;10.57;;
7845;SDS011;3968;51.424;6.788;2023-10-09T06:00:30;16.67;;;11.15;;
7845;SDS011;3968;51.424;6.788;2023-10-09T06:03:14;17.55;;;11.20;;
7845;SDS011;3968;51.424;6.788;2023-10-09T06:05:49;16.05;;;10.30;;
7845;SDS011;3968;51.424;6.788;2023-10-09T06:08:26;15.43;;;10.68;;
7845;SDS011;3968;51.424;6.788;2023-10-09T06:11:09;14.57;;;10.88;;
7845;SDS011;3968;51.424;6.788;2023-10-09T06:13:55;13.52;;;10.63;;
7845;SDS011;3968;51.424;6.788;2023-10-09T06:16:35;17.02;;;10.63;;
7845;SDS011;3968;51.424;6.788;2023-10-09T06:19:04;13.68;;;9.40;;
7845;SDS011;3968;51.424;6.788;2023-10-09T06:21:57;16.98;;;10.23;;
7845;SDS011;3968;51.424;6.788;2023-10-09T06:24:42;14.57;;;9.48;;
7845;SDS011;3968;51.424;6.788;2023-10-09T06:27:10;12.63;;;9.95;;
7845;SDS011;3968;51.424;6.788;2023-10-09T06:29:38;12.43;;;8.90;;
7845;SDS011;3968;51.424;6.788;2023-10-09T06:32:10;14.50;;;9.57;;
7845;SDS011;3968;51.424;6.788;2023-10-09T06:37:21;13.02;;;9.52;;
7845;SDS011;3968;51.424;6.788;2023-10-09T06:39:50;13.75;;;9.60;;
7845;SDS011;3968;51.424;6.788;2023-10-09T06:42:22;17.77;;;11.25;;
7845;SDS011;3968;51.424;6.788;2023-10-09T06:45:07;18.23;;;10.50;;
7845;SDS011;3968;51.424;6.788;2023-10-09T06:47:46;14.50;;;10.13;;
7845;SDS011;3968;51.424;6.788;2023-10-09T06:50:34;15.25;;;10.57;;
7845;SDS011;3968;51.424;6.788;2023-10-09T06:53:18;16.58;;;10.27;;
7845;SDS011;3968;51.424;6.788;2023-10-09T06:55:44;15.05;;;9.77;;
7845;SDS011;3968;51.424;6.788;2023-10-09T06:58:20;16.77;;;10.43;;
7845;SDS011;3968;51.424;6.788;2023-10-09T07:00:53;17.30;;;10.73;;
7845;SDS011;3968;51.424;6.788;2023-10-09T07:03:23;16.30;;;10.63;;
7845;SDS011;3968;51.424;6.788;2023-10-09T07:08:48;16.48;;;10.48;;
7845;SDS011;3968;51.424;6.788;2023-10-09T07:11:44;15.88;;;10.63;;
7845;SDS011;3968;51.424;6.788;2023-10-09T07:14:18;14.43;;;9.73;;
7845;SDS011;3968;51.424;6.788;2023-10-09T07:19:30;16.77;;;10.43;;
7845;SDS011;3968;51.424;6.788;2023-10-09T07:21:59;16.92;;;10.82;;
7845;SDS011;3968;51.424;6.788;2023-10-09T07:24:41;22.23;;;13.05;;
7845;SDS011;3968;51.424;6.788;2023-10-09T07:27:16;18.10;;;11.80;;
7845;SDS011;3968;51.424;6.788;2023-10-09T07:30:05;17.40;;;11.60;;
7845;SDS011;3968;51.424;6.788;2023-10-09T07:32:58;15.48;;;10.68;;
7845;SDS011;3968;51.424;6.788;2023-10-09T07:35:37;18.08;;;11.48;;
7845;SDS011;3968;51.424;6.788;2023-10-09T07:38:11;18.25;;;11.38;;
7845;SDS011;3968;51.424;6.788;2023-10-09T07:40:45;18.08;;;11.60;;
7845;SDS011;3968;51.424;6.788;2023-10-09T07:43:24;78.90;;;53.70;;
7845;SDS011;3968;51.424;6.788;2023-10-09T07:46:01;183.52;;;127.00;;
7845;SDS011;3968;51.424;6.788;2023-10-09T07:48:31;318.35;;;197.65;;
7845;SDS011;3968;51.424;6.788;2023-10-09T07:51:16;60.13;;;36.83;;
7845;SDS011;3968;51.424;6.788;2023-10-09T07:53:45;22.48;;;15.43;;
7845;SDS011;3968;51.424;6.788;2023-10-09T07:56:11;19.55;;;12.48;;
7845;SDS011;3968;51.424;6.788;2023-10-09T07:58:44;17.30;;;10.82;;
7845;SDS011;3968;51.424;6.788;2023-10-09T08:01:13;14.93;;;10.85;;
7845;SDS011;3968;51.424;6.788;2023-10-09T08:03:59;14.70;;;10.60;;
7845;SDS011;3968;51.424;6.788;2023-10-09T08:06:37;15.27;;;11.43;;
7845;SDS011;3968;51.424;6.788;2023-10-09T08:09:04;13.15;;;10.35;;
7845;SDS011;3968;51.424;6.788;2023-10-09T08:11:44;16.83;;;11.13;;
7845;SDS011;3968;51.424;6.788;2023-10-09T08:14:11;18.23;;;10.88;;
7845;SDS011;3968;51.424;6.788;2023-10-09T08:16:56;20.73;;;11.95;;
7845;SDS011;3968;51.424;6.788;2023-10-09T08:19:40;16.35;;;11.45;;
7845;SDS011;3968;51.424;6.788;2023-10-09T08:22:23;15.98;;;10.73;;
7845;SDS011;3968;51.424;6.788;2023-10-09T08:24:50;16.55;;;11.52;;
7845;SDS011;3968;51.424;6.788;2023-10-09T08:27:25;15.55;;;11.07;;
7845;SDS011;3968;51.424;6.788;2023-10-09T08:32:38;15.02;;;11.88;;
7845;SDS011;3968;51.424;6.788;2023-10-09T08:35:06;16.35;;;11.00;;
7845;SDS011;3968;51.424;6.788;2023-10-09T08:37:50;18.15;;;11.73;;
7845;SDS011;3968;51.424;6.788;2023-10-09T08:40:16;14.55;;;11.23;;
7845;SDS011;3968;51.424;6.788;2023-10-09T08:42:52;15.68;;;11.38;;
7845;SDS011;3968;51.424;6.788;2023-10-09T08:45:22;15.85;;;10.88;;
7845;SDS011;3968;51.424;6.788;2023-10-09T08:47:55;15.38;;;11.60;;
7845;SDS011;3968;51.424;6.788;2023-10-09T08:50:22;19.92;;;11.85;;
7845;SDS011;3968;51.424;6.788;2023-10-09T08:52:48;19.85;;;12.07;;
7845;SDS011;3968;51.424;6.788;2023-10-09T08:55:15;18.05;;;11.52;;
7845;SDS011;3968;51.424;6.788;2023-10-09T08:57:46;18.30;;;11.65;;
7845;SDS011;3968;51.424;6.788;2023-10-09T09:00:18;21.60;;;11.50;;
7845;SDS011;3968;51.424;6.788;2023-10-09T09:02:54;15.73;;;11.20;;
7845;SDS011;3968;51.424;6.788;2023-10-09T09:05:20;18.33;;;12.30;;
7845;SDS011;3968;51.424;6.788;2023-10-09T09:07:46;17.23;;;12.52;;
7845;SDS011;3968;51.424;6.788;2023-10-09T09:10:13;16.23;;;11.52;;
7845;SDS011;3968;51.424;6.788;2023-10-09T09:12:49;15.77;;;11.43;;
7845;SDS011;3968;51.424;6.788;2023-10-09T09:15:26;18.42;;;12.85;;
7845;SDS011;3968;51.424;6.788;2023-10-09T09:18:03;25.50;;;12.38;;
7845;SDS011;3968;51.424;6.788;2023-10-09T09:20:34;17.42;;;11.88;;
7845;SDS011;3968;51.424;6.788;2023-10-09T09:23:02;18.60;;;12.23;;
7845;SDS011;3968;51.424;6.788;2023-10-09T09:28:11;19.40;;;10.85;;
7845;SDS011;3968;51.424;6.788;2023-10-09T09:30:51;18.45;;;10.73;;
7845;SDS011;3968;51.424;6.788;2023-10-09T09:33:23;16.75;;;11.63;;
7845;SDS011;3968;51.424;6.788;2023-10-09T09:36:05;16.73;;;11.68;;
7845;SDS011;3968;51.424;6.788;2023-10-09T09:38:32;15.48;;;11.18;;
7845;SDS011;3968;51.424;6.788;2023-10-09T09:41:16;17.08;;;11.40;;
7845;SDS011;3968;51.424;6.788;2023-10-09T09:43:58;20.05;;;12.82;;
7845;SDS011;3968;51.424;6.788;2023-10-09T09:46:28;22.83;;;12.23;;
7845;SDS011;3968;51.424;6.788;2023-10-09T09:49:00;18.73;;;12.90;;
7845;SDS011;3968;51.424;6.788;2023-10-09T09:51:29;16.25;;;11.60;;
7845;SDS011;3968;51.424;6.788;2023-10-09T09:53:55;18.30;;;11.82;;
7845;SDS011;3968;51.424;6.788;2023-10-09T09:56:23;16.50;;;10.32;;
7845;SDS011;3968;51.424;6.788;2023-10-09T09:58:50;16.33;;;10.95;;
7845;SDS011;3968;51.424;6.788;2023-10-09T10:01:25;18.35;;;11.93;;
7845;SDS011;3968;51.424;6.788;2023-10-09T10:03:58;16.67;;;10.23;;
7845;SDS011;3968;51.424;6.788;2023-10-09T10:06:29;19.80;;;12.23;;
7845;SDS011;3968;51.424;6.788;2023-10-09T10:08:57;20.63;;;11.40;;
7845;SDS011;3968;51.424;6.788;2023-10-09T10:14:14;22.73;;;11.98;;
7845;SDS011;3968;51.424;6.788;2023-10-09T10:22:25;15.38;;;11.75;;
7845;SDS011;3968;51.424;6.788;2023-10-09T10:24:58;16.27;;;11.88;;
7845;SDS011;3968;51.424;6.788;2023-10-09T10:27:28;19.23;;;11.75;;
7845;SDS011;3968;51.424;6.788;2023-10-09T10:35:17;14.05;;;10.00;;
7845;SDS011;3968;51.424;6.788;2023-10-09T10:37:45;16.23;;;11.07;;
7845;SDS011;3968;51.424;6.788;2023-10-09T10:40:28;16.00;;;10.95;;
7845;SDS011;3968;51.424;6.788;2023-10-09T10:43:15;17.80;;;11.35;;
7845;SDS011;3968;51.424;6.788;2023-10-09T10:46:06;17.45;;;11.85;;
7845;SDS011;3968;51.424;6.788;2023-10-09T10:48:51;16.58;;;11.13;;
7845;SDS011;3968;51.424;6.788;2023-10-09T10:51:36;17.80;;;10.90;;
7845;SDS011;3968;51.424;6.788;2023-10-09T10:54:05;16.50;;;11.27;;
7845;SDS011;3968;51.424;6.788;2023-10-09T10:57:01;15.45;;;10.77;;
7845;SDS011;3968;51.424;6.788;2023-10-09T10:59:32;18.08;;;11.63;;
7845;SDS011;3968;51.424;6.788;2023-10-09T11:02:10;16.50;;;11.70;;
7845;SDS011;3968;51.424;6.788;2023-10-09T11:04:37;15.48;;;10.75;;
7845;SDS011;3968;51.424;6.788;2023-10-09T11:07:09;17.63;;;11.82;;
7845;SDS011;3968;51.424;6.788;2023-10-09T11:15:29;15.57;;;10.52;;
7845;SDS011;3968;51.424;6.788;2023-10-09T11:18:09;15.45;;;10.40;;
7845;SDS011;3968;51.424;6.788;2023-10-09T11:20:44;17.95;;;11.07;;
7845;SDS011;3968;51.424;6.788;2023-10-09T11:23:29;14.05;;;10.35;;
7845;SDS011;3968;51.424;6.788;2023-10-09T11:25:59;15.35;;;10.10;;
7845;SDS011;3968;51.424;6.788;2023-10-09T11:31:42;16.83;;;11.75;;
7845;SDS011;3968;51.424;6.788;2023-10-09T11:34:24;20.10;;;14.10;;
7845;SDS011;3968;51.424;6.788;2023-10-09T11:37:00;21.23;;;12.35;;
7845;SDS011;3968;51.424;6.788;2023-10-09T11:39:56;14.18;;;9.45;;
7845;SDS011;3968;51.424;6.788;2023-10-09T11:42:24;18.42;;;11.68;;
7845;SDS011;3968;51.424;6.788;2023-10-09T11:45:21;16.00;;;11.00;;
7845;SDS011;3968;51.424;6.788;2023-10-09T11:47:53;19.77;;;12.30;;
7845;SDS011;3968;51.424;6.788;2023-10-09T11:50:44;16.90;;;11.30;;
7845;SDS011;3968;51.424;6.788;2023-10-09T11:53:41;20.83;;;11.88;;
7845;SDS011;3968;51.424;6.788;2023-10-09T11:56:13;15.75;;;12.43;;
7845;SDS011;3968;51.424;6.788;2023-10-09T11:58:42;17.00;;;11.57;;
7845;SDS011;3968;51.424;6.788;2023-10-09T12:01:11;21.92;;;12.65;;
7845;SDS011;3968;51.424;6.788;2023-10-09T12:03:48;18.67;;;12.35;;
7845;SDS011;3968;51.424;6.788;2023-10-09T12:06:17;15.35;;;10.85;;
7845;SDS011;3968;51.424;6.788;2023-10-09T12:08:45;17.90;;;13.07;;
7845;SDS011;3968;51.424;6.788;2023-10-09T12:11:16;18.65;;;13.27;;
7845;SDS011;3968;51.424;6.788;2023-10-09T12:13:53;20.52;;;11.48;;
7845;SDS011;3968;51.424;6.788;2023-10-09T12:16:22;18.45;;;12.05;;
7845;SDS011;3968;51.424;6.788;2023-10-09T12:18:52;17.48;;;11.63;;
7845;SDS011;3968;51.424;6.788;2023-10-09T12:21:21;20.27;;;12.82;;
7845;SDS011;3968;51.424;6.788;2023-10-09T12:23:48;26.98;;;17.88;;
7845;SDS011;3968;51.424;6.788;2023-10-09T12:26:14;161.85;;;113.45;;
7845;SDS011;3968;51.424;6.788;2023-10-09T12:28:40;73.63;;;53.78;;
7845;SDS011;3968;51.424;6.788;2023-10-09T12:31:10;42.22;;;29.25;;
7845;SDS011;3968;51.424;6.788;2023-10-09T12:33:46;16.02;;;12.77;;
7845;SDS011;3968;51.424;6.788;2023-10-09T12:36:12;19.98;;;12.98;;
7845;SDS011;3968;51.424;6.788;2023-10-09T12:38:48;20.85;;;13.48;;
7845;SDS011;3968;51.424;6.788;2023-10-09T12:41:19;18.13;;;11.13;;
7845;SDS011;3968;51.424;6.788;2023-10-09T12:43:50;24.92;;;18.17;;
7845;SDS011;3968;51.424;6.788;2023-10-09T12:46:17;17.98;;;12.75;;
7845;SDS011;3968;51.424;6.788;2023-10-09T12:48:43;20.70;;;14.32;;
7845;SDS011;3968;51.424;6.788;2023-10-09T12:51:13;18.45;;;12.85;;
7845;SDS011;3968;51.424;6.788;2023-10-09T12:53:44;23.75;;;13.27;;
7845;SDS011;3968;51.424;6.788;2023-10-09T12:56:11;21.95;;;13.30;;
7845;SDS011;3968;51.424;6.788;2023-10-09T12:58:37;20.65;;;13.20;;
7845;SDS011;3968;51.424;6.788;2023-10-09T13:01:03;21.50;;;13.02;;
7845;SDS011;3968;51.424;6.788;2023-10-09T13:03:36;17.27;;;11.23;;
7845;SDS011;3968;51.424;6.788;2023-10-09T13:06:05;21.05;;;13.13;;
7845;SDS011;3968;51.424;6.788;2023-10-09T13:08:37;19.58;;;13.52;;
7845;SDS011;3968;51.424;6.788;2023-10-09T13:11:06;16.90;;;12.23;;
7845;SDS011;3968;51.424;6.788;2023-10-09T13:13:35;19.98;;;14.13;;
7845;SDS011;3968;51.424;6.788;2023-10-09T13:16:13;19.27;;;12.52;;
7845;SDS011;3968;51.424;6.788;2023-10-09T13:18:56;16.88;;;11.82;;
7845;SDS011;3968;51.424;6.788;2023-10-09T13:21:25;19.00;;;12.93;;
7845;SDS011;3968;51.424;6.788;2023-10-09T13:23:52;17.40;;;11.40;;
7845;SDS011;3968;51.424;6.788;2023-10-09T13:26:20;16.95;;;10.95;;
7845;SDS011;3968;51.424;6.788;2023-10-09T13:28:51;19.38;;;12.73;;
7845;SDS011;3968;51.424;6.788;2023-10-09T13:31:17;23.23;;;13.25;;
7845;SDS011;3968;51.424;6.788;2023-10-09T13:33:45;18.40;;;12.43;;
7845;SDS011;3968;51.424;6.788;2023-10-09T13:36:12;16.50;;;11.38;;
7845;SDS011;3968;51.424;6.788;2023-10-09T13:38:51;15.18;;;11.50;;
7845;SDS011;3968;51.424;6.788;2023-10-09T13:41:21;22.27;;;13.10;;
7845;SDS011;3968;51.424;6.788;2023-10-09T13:43:47;18.33;;;12.43;;
7845;SDS011;3968;51.424;6.788;2023-10-09T13:46:16;20.60;;;13.77;;
7845;SDS011;3968;51.424;6.788;2023-10-09T13:48:43;22.15;;;13.75;;
7845;SDS011;3968;51.424;6.788;2023-10-09T13:51:10;20.98;;;12.52;;
7845;SDS011;3968;51.424;6.788;2023-10-09T13:53:42;23.73;;;13.95;;
7845;SDS011;3968;51.424;6.788;2023-10-09T13:56:12;17.13;;;13.25;;
7845;SDS011;3968;51.424;6.788;2023-10-09T13:58:40;18.33;;;13.15;;
7845;SDS011;3968;51.424;6.788;2023-10-09T14:01:08;24.05;;;14.68;;
7845;SDS011;3968;51.424;6.788;2023-10-09T14:03:45;19.83;;;14.02;;
7845;SDS011;3968;51.424;6.788;2023-10-09T14:06:15;20.90;;;13.13;;
7845;SDS011;3968;51.424;6.788;2023-10-09T14:08:45;20.10;;;13.27;;
7845;SDS011;3968;51.424;6.788;2023-10-09T14:11:10;22.30;;;14.20;;
7845;SDS011;3968;51.424;6.788;2023-10-09T14:13:38;24.40;;;15.55;;
7845;SDS011;3968;51.424;6.788;2023-10-09T14:16:05;24.75;;;16.02;;
7845;SDS011;3968;51.424;6.788;2023-10-09T14:18:31;22.40;;;14.90;;
7845;SDS011;3968;51.424;6.788;2023-10-09T14:21:01;27.42;;;14.88;;
7845;SDS011;3968;51.424;6.788;2023-10-09T14:23:29;23.20;;;15.30;;
7845;SDS011;3968;51.424;6.788;2023-10-09T14:25:59;21.70;;;13.88;;
7845;SDS011;3968;51.424;6.788;2023-10-09T14:28:27;23.27;;;15.50;;
7845;SDS011;3968;51.424;6.788;2023-10-09T14:30:54;35.45;;;22.95;;
7845;SDS011;3968;51.424;6.788;2023-10-09T14:33:24;23.25;;;16.08;;
7845;SDS011;3968;51.424;6.788;2023-10-09T14:35:53;18.92;;;13.55;;
7845;SDS011;3968;51.424;6.788;2023-10-09T14:38:20;25.33;;;15.65;;
7845;SDS011;3968;51.424;6.788;2023-10-09T14:40:52;21.70;;;14.68;;
7845;SDS011;3968;51.424;6.788;2023-10-09T14:43:24;21.02;;;14.25;;
7845;SDS011;3968;51.424;6.788;2023-10-09T14:45:53;22.63;;;14.93;;
7845;SDS011;3968;51.424;6.788;2023-10-09T14:48:20;23.45;;;15.40;;
7845;SDS011;3968;51.424;6.788;2023-10-09T14:50:51;22.20;;;14.52;;
7845;SDS011;3968;51.424;6.788;2023-10-09T14:53:18;20.95;;;13.77;;
7845;SDS011;3968;51.424;6.788;2023-10-09T14:55:45;17.65;;;14.15;;
7845;SDS011;3968;51.424;6.788;2023-10-09T14:58:12;18.58;;;13.48;;
7845;SDS011;3968;51.424;6.788;2023-10-09T15:00:38;23.73;;;16.13;;
7845;SDS011;3968;51.424;6.788;2023-10-09T15:03:11;36.08;;;20.98;;
7845;SDS011;3968;51.424;6.788;2023-10-09T15:05:41;26.83;;;17.35;;
7845;SDS011;3968;51.424;6.788;2023-10-09T15:08:07;26.52;;;18.10;;
7845;SDS011;3968;51.424;6.788;2023-10-09T15:10:36;27.48;;;15.85;;
7845;SDS011;3968;51.424;6.788;2023-10-09T15:13:12;25.52;;;15.85;;
7845;SDS011;3968;51.424;6.788;2023-10-09T15:15:44;25.05;;;16.70;;
7845;SDS011;3968;51.424;6.788;2023-10-09T15:18:10;25.90;;;16.60;;
7845;SDS011;3968;51.424;6.788;2023-10-09T15:20:39;131.80;;;97.45;;
7845;SDS011;3968;51.424;6.788;2023-10-09T15:23:07;43.85;;;30.05;;
7845;SDS011;3968;51.424;6.788;2023-10-09T15:25:33;29.08;;;20.88;;
7845;SDS011;3968;51.424;6.788;2023-10-09T15:27:59;24.80;;;17.48;;
7845;SDS011;3968;51.424;6.788;2023-10-09T15:30:25;22.15;;;16.27;;
7845;SDS011;3968;51.424;6.788;2023-10-09T15:32:52;29.65;;;18.98;;
7845;SDS011;3968;51.424;6.788;2023-10-09T15:35:18;27.35;;;16.98;;
7845;SDS011;3968;51.424;6.788;2023-10-09T15:37:44;24.73;;;16.33;;
7845;SDS011;3968;51.424;6.788;2023-10-09T15:40:11;22.13;;;14.43;;
7845;SDS011;3968;51.424;6.788;2023-10-09T15:42:40;23.40;;;16.05;;
7845;SDS011;3968;51.424;6.788;2023-10-09T15:45:07;21.30;;;14.73;;
7845;SDS011;3968;51.424;6.788;2023-10-09T15:47:33;22.88;;;16.58;;
7845;SDS011;3968;51.424;6.788;2023-10-09T15:50:01;21.75;;;14.50;;
7845;SDS011;3968;51.424;6.788;2023-10-09T15:52:28;23.25;;;14.52;;
7845;SDS011;3968;51.424;6.788;2023-10-09T15:54:54;27.65;;;15.52;;
7845;SDS011;3968;51.424;6.788;2023-10-09T15:57:20;23.27;;;16.40;;
7845;SDS011;3968;51.424;6.788;2023-10-09T15:59:47;22.67;;;16.98;;
7845;SDS011;3968;51.424;6.788;2023-10-09T16:02:15;168.38;;;131.98;;
7845;SDS011;3968;51.424;6.788;2023-10-09T16:04:42;340.70;;;262.05;;
7845;SDS011;3968;51.424;6.788;2023-10-09T16:07:08;543.03;;;437.45;;
7845;SDS011;3968;51.424;6.788;2023-10-09T16:09:34;566.60;;;450.35;;